Time;durP1;ratioP1;P1;durP2;ratioP2;P2;SDS_P1;SDS_P2;PMS_P1;PMS_P2;Temp;Humidity;BMP_temperature;BMP_pressure;BME280_temperature;BME280_humidity;BME280_pressure;Samples;Min_cycle;Max_cycle;Signal;HPM_P1;HPM_P2
2024/01/21 00:00:42;;;;;;;7.10;2.22;;;;;;;;;;5049921;28;20111;-68
2024/01/21 00:03:08;;;;;;;8.00;2.13;;;;;;;;;;5051460;28;20111;-66
2024/01/21 00:05:33;;;;;;;14.45;2.80;;;;;;;;;;5050827;28;20120;-67
2024/01/21 00:07:58;;;;;;;4.13;2.03;;;;;;;;;;5051248;28;20060;-66
2024/01/21 00:10:24;;;;;;;3.00;1.83;;;;;;;;;;5050936;28;20021;-67
2024/01/21 00:12:49;;;;;;;5.75;1.80;;;;;;;;;;5050882;28;20670;-67
2024/01/21 00:15:15;;;;;;;7.18;2.20;;;;;;;;;;5051266;28;20564;-67
2024/01/21 00:17:40;;;;;;;3.63;1.98;;;;;;;;;;5051173;28;20025;-66
2024/01/21 00:20:06;;;;;;;5.65;1.95;;;;;;;;;;5050197;28;20079;-67
2024/01/21 00:22:31;;;;;;;13.05;2.53;;;;;;;;;;5051238;28;20047;-66
2024/01/21 00:24:56;;;;;;;11.43;2.28;;;;;;;;;;5050703;28;20078;-66
2024/01/21 00:27:22;;;;;;;14.25;2.67;;;;;;;;;;5050889;28;20056;-67
2024/01/21 00:29:47;;;;;;;9.65;2.00;;;;;;;;;;5050684;28;20049;-67
2024/01/21 00:32:12;;;;;;;9.32;1.75;;;;;;;;;;5050684;28;20086;-66
2024/01/21 00:34:38;;;;;;;17.83;2.83;;;;;;;;;;5050297;28;20033;-66
2024/01/21 00:37:03;;;;;;;5.78;1.80;;;;;;;;;;5049571;28;20041;-66
2024/01/21 00:39:29;;;;;;;11.90;2.90;;;;;;;;;;5050847;28;20111;-67
2024/01/21 00:41:55;;;;;;;16.52;2.63;;;;;;;;;;5050370;28;20414;-67
2024/01/21 00:44:20;;;;;;;11.48;2.50;;;;;;;;;;5050686;28;20428;-68
2024/01/21 00:46:47;;;;;;;10.60;1.88;;;;;;;;;;5050191;28;20033;-67
2024/01/21 00:49:13;;;;;;;10.52;2.50;;;;;;;;;;5050475;28;20040;-67
2024/01/21 00:51:38;;;;;;;5.10;2.25;;;;;;;;;;5048978;28;20033;-68
2024/01/21 00:54:03;;;;;;;7.65;1.95;;;;;;;;;;5050587;28;20562;-67
2024/01/21 00:56:28;;;;;;;7.88;3.00;;;;;;;;;;5050112;28;20037;-68
2024/01/21 00:58:54;;;;;;;4.82;1.98;;;;;;;;;;5050654;28;20033;-66
2024/01/21 01:01:19;;;;;;;9.75;2.55;;;;;;;;;;5050279;28;20041;-67
2024/01/21 01:03:45;;;;;;;13.75;2.33;;;;;;;;;;5050101;28;20357;-67
2024/01/21 01:06:10;;;;;;;4.97;1.80;;;;;;;;;;5050164;28;20049;-67
2024/01/21 01:08:35;;;;;;;4.22;1.60;;;;;;;;;;5050324;28;20505;-66
2024/01/21 01:11:01;;;;;;;10.82;2.40;;;;;;;;;;5050114;28;20043;-66
2024/01/21 01:13:26;;;;;;;5.47;2.03;;;;;;;;;;5049460;28;20045;-66
2024/01/21 01:15:52;;;;;;;5.28;1.55;;;;;;;;;;5050225;28;20484;-66
2024/01/21 01:18:17;;;;;;;7.65;1.27;;;;;;;;;;5050190;28;20075;-67
2024/01/21 01:20:43;;;;;;;2.28;1.17;;;;;;;;;;5049627;28;20043;-66
2024/01/21 01:23:08;;;;;;;4.05;1.60;;;;;;;;;;5078391;28;20029;-67
2024/01/21 01:25:33;;;;;;;4.40;1.60;;;;;;;;;;5048715;28;20037;-67
2024/01/21 01:27:59;;;;;;;5.95;1.73;;;;;;;;;;5050762;28;20044;-66
2024/01/21 01:30:24;;;;;;;7.60;1.52;;;;;;;;;;5056362;28;20044;-67
2024/01/21 01:32:49;;;;;;;4.90;1.30;;;;;;;;;;5049787;28;20037;-67
2024/01/21 01:35:15;;;;;;;7.65;1.63;;;;;;;;;;5049383;28;20482;-66
2024/01/21 01:37:40;;;;;;;11.02;2.28;;;;;;;;;;5050110;28;20029;-67
2024/01/21 01:40:06;;;;;;;6.78;1.42;;;;;;;;;;5049993;28;20041;-66
2024/01/21 01:42:32;;;;;;;10.63;1.88;;;;;;;;;;5049727;28;20112;-68
2024/01/21 01:44:58;;;;;;;8.20;1.58;;;;;;;;;;5049671;28;20113;-66
2024/01/21 01:47:23;;;;;;;12.35;2.17;;;;;;;;;;5079380;28;20060;-67
2024/01/21 01:49:48;;;;;;;21.92;2.28;;;;;;;;;;5053184;28;20029;-67
2024/01/21 01:52:15;;;;;;;8.77;2.20;;;;;;;;;;5054039;28;20033;-66
2024/01/21 01:54:42;;;;;;;12.13;2.22;;;;;;;;;;5053528;28;20033;-67
2024/01/21 01:57:07;;;;;;;5.82;1.42;;;;;;;;;;5052413;28;20052;-66
2024/01/21 01:59:33;;;;;;;6.80;1.80;;;;;;;;;;5053512;28;20032;-66
2024/01/21 02:01:59;;;;;;;9.90;1.73;;;;;;;;;;5052524;28;20040;-67
2024/01/21 02:04:24;;;;;;;9.77;2.03;;;;;;;;;;5052161;28;20037;-68
2024/01/21 02:06:50;;;;;;;3.90;1.40;;;;;;;;;;5053414;28;20048;-68
2024/01/21 02:09:16;;;;;;;3.67;1.20;;;;;;;;;;5052569;28;20645;-66
2024/01/21 02:11:41;;;;;;;3.90;1.40;;;;;;;;;;5085500;28;20495;-67
2024/01/21 02:14:06;;;;;;;8.15;1.30;;;;;;;;;;5053580;28;20033;-67
2024/01/21 02:16:32;;;;;;;11.70;1.75;;;;;;;;;;5085834;28;20075;-67
2024/01/21 02:18:58;;;;;;;5.43;1.33;;;;;;;;;;5053297;28;20037;-67
2024/01/21 02:21:23;;;;;;;5.65;1.80;;;;;;;;;;5047560;28;20059;-68
2024/01/21 02:23:48;;;;;;;7.40;2.10;;;;;;;;;;5053589;28;20467;-68
2024/01/21 02:26:13;;;;;;;10.48;1.90;;;;;;;;;;5053224;28;20373;-66
2024/01/21 02:28:39;;;;;;;3.85;1.50;;;;;;;;;;5051103;28;20403;-66
2024/01/21 02:31:04;;;;;;;5.88;1.10;;;;;;;;;;5052860;28;20041;-67
2024/01/21 02:33:29;;;;;;;3.55;1.25;;;;;;;;;;5053040;28;20083;-67
2024/01/21 02:35:55;;;;;;;15.85;2.10;;;;;;;;;;5052731;28;20048;-67
2024/01/21 02:38:20;;;;;;;2.70;1.08;;;;;;;;;;5052763;28;20041;-67
2024/01/21 02:40:45;;;;;;;9.82;1.52;;;;;;;;;;5052864;28;20037;-67
2024/01/21 02:43:11;;;;;;;4.20;0.95;;;;;;;;;;5051324;28;20036;-67
2024/01/21 02:45:36;;;;;;;4.97;1.00;;;;;;;;;;5052902;28;20036;-66
2024/01/21 02:48:02;;;;;;;3.53;1.10;;;;;;;;;;5052315;28;20049;-66
2024/01/21 02:50:27;;;;;;;5.50;1.15;;;;;;;;;;5052172;28;20040;-67
2024/01/21 02:52:53;;;;;;;1.75;0.77;;;;;;;;;;5052412;28;20029;-67
2024/01/21 02:55:18;;;;;;;5.25;1.45;;;;;;;;;;5052596;28;20044;-66
2024/01/21 02:57:43;;;;;;;2.78;0.95;;;;;;;;;;5051314;28;20044;-67
2024/01/21 03:00:09;;;;;;;7.72;1.10;;;;;;;;;;5050764;28;20111;-66
2024/01/21 03:02:35;;;;;;;9.98;1.50;;;;;;;;;;5084706;28;20128;-66
2024/01/21 03:05:00;;;;;;;4.10;1.05;;;;;;;;;;5052152;28;20369;-68
2024/01/21 03:07:26;;;;;;;7.43;1.20;;;;;;;;;;5051573;28;20358;-66
2024/01/21 03:09:51;;;;;;;5.70;1.48;;;;;;;;;;5052444;28;20079;-66
2024/01/21 03:12:17;;;;;;;9.30;1.33;;;;;;;;;;5052475;28;20033;-67
2024/01/21 03:14:42;;;;;;;3.63;1.30;;;;;;;;;;5052213;28;20078;-68
2024/01/21 03:17:08;;;;;;;7.80;1.55;;;;;;;;;;5052170;28;20720;-66
2024/01/21 03:19:33;;;;;;;3.33;1.40;;;;;;;;;;5051889;28;20480;-67
2024/01/21 03:21:58;;;;;;;5.97;1.00;;;;;;;;;;5051556;28;20630;-67
2024/01/21 03:24:24;;;;;;;7.18;1.20;;;;;;;;;;5052317;28;20098;-68
2024/01/21 03:26:50;;;;;;;1.55;0.98;;;;;;;;;;5052011;28;20514;-66
2024/01/21 03:29:15;;;;;;;4.38;1.15;;;;;;;;;;5052918;28;20107;-66
2024/01/21 03:31:40;;;;;;;6.10;0.98;;;;;;;;;;5051986;28;20045;-67
2024/01/21 03:34:06;;;;;;;2.80;0.73;;;;;;;;;;5051940;28;20074;-66
2024/01/21 03:36:31;;;;;;;5.25;0.90;;;;;;;;;;5051419;28;20078;-67
2024/01/21 03:38:56;;;;;;;7.78;1.08;;;;;;;;;;5051965;28;20149;-67
2024/01/21 03:41:22;;;;;;;4.25;1.17;;;;;;;;;;5051606;28;20029;-68
2024/01/21 03:43:47;;;;;;;5.10;0.90;;;;;;;;;;5051935;28;20068;-67
2024/01/21 03:46:12;;;;;;;3.40;0.95;;;;;;;;;;5051532;28;20158;-67
2024/01/21 03:48:38;;;;;;;3.15;0.60;;;;;;;;;;5051454;28;20114;-67
2024/01/21 03:51:04;;;;;;;6.38;1.25;;;;;;;;;;5051359;28;20133;-66
2024/01/21 03:53:29;;;;;;;6.25;1.35;;;;;;;;;;5051362;28;20037;-67
2024/01/21 03:55:55;;;;;;;6.55;1.05;;;;;;;;;;5051556;28;20025;-66
2024/01/21 03:58:20;;;;;;;4.45;1.25;;;;;;;;;;5051535;28;20072;-68
2024/01/21 04:00:45;;;;;;;2.90;1.02;;;;;;;;;;5051061;28;20102;-67
2024/01/21 04:03:11;;;;;;;4.05;1.05;;;;;;;;;;5051683;28;20473;-67
2024/01/21 04:05:36;;;;;;;5.80;1.02;;;;;;;;;;5050531;28;20377;-66
2024/01/21 04:08:04;;;;;;;5.32;1.10;;;;;;;;;;5051582;28;20657;-67
2024/01/21 04:10:29;;;;;;;11.13;1.75;;;;;;;;;;5046439;28;20064;-67
2024/01/21 04:12:54;;;;;;;8.70;1.30;;;;;;;;;;5049715;28;20056;-68
2024/01/21 04:15:20;;;;;;;4.97;0.90;;;;;;;;;;5050933;28;20041;-66
2024/01/21 04:17:45;;;;;;;5.63;1.48;;;;;;;;;;5051257;28;20103;-69
2024/01/21 04:20:10;;;;;;;7.50;0.90;;;;;;;;;;5050862;28;20140;-67
2024/01/21 04:22:36;;;;;;;7.40;1.00;;;;;;;;;;5050791;28;20371;-67
2024/01/21 04:25:01;;;;;;;7.22;1.20;;;;;;;;;;5050716;28;20670;-66
2024/01/21 04:27:27;;;;;;;5.10;1.08;;;;;;;;;;5050002;28;20036;-67
2024/01/21 04:29:52;;;;;;;7.43;1.73;;;;;;;;;;5051795;28;20385;-67
2024/01/21 04:32:18;;;;;;;11.65;2.05;;;;;;;;;;5051097;28;20420;-67
2024/01/21 04:34:44;;;;;;;8.02;1.17;;;;;;;;;;5049749;28;20055;-66
2024/01/21 04:37:09;;;;;;;11.70;1.65;;;;;;;;;;5049796;28;20044;-65
2024/01/21 04:39:34;;;;;;;7.25;1.60;;;;;;;;;;5050667;28;20068;-67
2024/01/21 04:42:00;;;;;;;6.55;1.45;;;;;;;;;;5050847;28;20047;-67
2024/01/21 04:44:25;;;;;;;6.53;1.35;;;;;;;;;;5050675;28;20044;-66
2024/01/21 04:46:51;;;;;;;11.25;1.63;;;;;;;;;;5050143;28;20029;-67
2024/01/21 04:49:16;;;;;;;11.20;1.30;;;;;;;;;;5050526;28;20036;-67
2024/01/21 04:51:41;;;;;;;12.25;1.55;;;;;;;;;;5049805;28;20623;-67
2024/01/21 04:54:07;;;;;;;11.48;1.60;;;;;;;;;;5050427;28;20078;-67
2024/01/21 04:56:33;;;;;;;6.57;1.40;;;;;;;;;;5050164;28;20068;-66
2024/01/21 04:58:58;;;;;;;7.53;1.42;;;;;;;;;;5048985;28;20130;-67
2024/01/21 05:01:23;;;;;;;13.15;1.92;;;;;;;;;;5050349;28;20429;-68
2024/01/21 05:03:50;;;;;;;9.90;1.98;;;;;;;;;;5050150;28;20029;-67
2024/01/21 05:06:15;;;;;;;9.48;1.35;;;;;;;;;;5050013;28;20041;-68
2024/01/21 05:08:41;;;;;;;11.73;1.98;;;;;;;;;;5050334;28;20037;-67
2024/01/21 05:11:06;;;;;;;8.32;1.58;;;;;;;;;;5050113;28;20087;-66
2024/01/21 05:13:32;;;;;;;7.82;1.15;;;;;;;;;;5050457;28;20044;-67
2024/01/21 05:15:57;;;;;;;14.02;2.22;;;;;;;;;;5050096;28;20083;-67
2024/01/21 05:18:23;;;;;;;17.30;1.75;;;;;;;;;;5050192;28;20086;-67
2024/01/21 05:20:49;;;;;;;13.60;1.73;;;;;;;;;;5049426;28;20029;-67
2024/01/21 05:23:14;;;;;;;12.68;1.80;;;;;;;;;;5048592;28;20033;-68
2024/01/21 05:25:39;;;;;;;12.38;1.38;;;;;;;;;;5050283;28;20542;-66
2024/01/21 05:28:05;;;;;;;13.93;2.35;;;;;;;;;;5049469;28;20041;-66
2024/01/21 05:30:30;;;;;;;17.23;1.80;;;;;;;;;;5049364;28;20503;-66
2024/01/21 05:32:56;;;;;;;12.30;1.70;;;;;;;;;;5050425;28;20108;-66
2024/01/21 05:35:24;;;;;;;5.50;1.20;;;;;;;;;;5081974;28;20045;-66
2024/01/21 05:37:49;;;;;;;13.00;2.50;;;;;;;;;;5050099;28;20036;-67
2024/01/21 05:40:15;;;;;;;14.25;2.00;;;;;;;;;;5049747;28;20028;-67
2024/01/21 05:42:40;;;;;;;20.88;1.95;;;;;;;;;;5050009;28;20118;-66
2024/01/21 05:45:07;;;;;;;16.17;1.73;;;;;;;;;;5049577;28;20033;-67
2024/01/21 05:47:33;;;;;;;15.38;1.77;;;;;;;;;;5050211;28;20372;-66
2024/01/21 05:49:58;;;;;;;10.40;1.48;;;;;;;;;;5049686;28;20043;-66
2024/01/21 05:52:23;;;;;;;15.50;1.92;;;;;;;;;;5048282;28;20033;-66
2024/01/21 05:54:49;;;;;;;10.55;1.20;;;;;;;;;;5049742;28;20110;-66
2024/01/21 05:57:14;;;;;;;10.95;1.40;;;;;;;;;;5047841;28;20122;-68
2024/01/21 05:59:39;;;;;;;7.20;1.20;;;;;;;;;;5049684;28;20028;-68
2024/01/21 06:02:07;;;;;;;16.40;2.15;;;;;;;;;;5049769;28;20132;-67
2024/01/21 06:04:33;;;;;;;11.27;1.70;;;;;;;;;;5049433;28;20433;-67
2024/01/21 06:06:59;;;;;;;12.27;1.95;;;;;;;;;;5048316;28;20067;-66
2024/01/21 06:09:24;;;;;;;7.88;1.52;;;;;;;;;;5049899;28;20029;-66
2024/01/21 06:11:49;;;;;;;15.35;1.90;;;;;;;;;;5049199;28;20416;-67
2024/01/21 06:14:15;;;;;;;16.80;1.88;;;;;;;;;;5049740;28;20044;-67
2024/01/21 06:16:40;;;;;;;10.60;1.77;;;;;;;;;;5049621;28;20087;-66
2024/01/21 06:19:06;;;;;;;21.50;2.22;;;;;;;;;;5049567;28;20566;-67
2024/01/21 06:21:31;;;;;;;13.80;1.88;;;;;;;;;;5049245;28;20104;-67
2024/01/21 06:23:56;;;;;;;12.90;2.42;;;;;;;;;;5049409;28;20064;-66
2024/01/21 06:26:22;;;;;;;17.13;2.17;;;;;;;;;;5049376;28;20048;-67
2024/01/21 06:28:51;;;;;;;18.63;1.85;;;;;;;;;;5051259;28;20033;-67
2024/01/21 06:31:16;;;;;;;11.68;1.95;;;;;;;;;;5081368;28;20108;-66
2024/01/21 06:33:42;;;;;;;18.23;2.92;;;;;;;;;;5052520;28;20124;-67
2024/01/21 06:36:07;;;;;;;18.05;2.40;;;;;;;;;;5053021;28;20041;-66
2024/01/21 06:38:33;;;;;;;13.75;2.30;;;;;;;;;;5051811;28;20058;-66
2024/01/21 06:40:58;;;;;;;12.75;1.88;;;;;;;;;;5052887;28;21190;-67
2024/01/21 06:43:24;;;;;;;11.88;1.98;;;;;;;;;;5052067;28;20040;-67
2024/01/21 06:45:49;;;;;;;24.23;3.22;;;;;;;;;;5052582;28;20040;-67
2024/01/21 06:48:15;;;;;;;26.35;2.33;;;;;;;;;;5052751;28;20049;-67
2024/01/21 06:50:40;;;;;;;26.52;2.58;;;;;;;;;;5052582;28;20058;-66
2024/01/21 06:53:05;;;;;;;16.40;2.50;;;;;;;;;;5052721;28;20066;-68
2024/01/21 06:55:31;;;;;;;20.95;2.65;;;;;;;;;;5052466;28;20416;-66
2024/01/21 06:57:56;;;;;;;11.68;1.75;;;;;;;;;;5053047;28;20131;-67
2024/01/21 07:00:22;;;;;;;17.48;2.67;;;;;;;;;;5052432;28;20126;-68
2024/01/21 07:02:47;;;;;;;20.83;3.67;;;;;;;;;;5052847;28;20041;-67
2024/01/21 07:05:12;;;;;;;20.83;3.08;;;;;;;;;;5052329;28;20049;-67
2024/01/21 07:07:38;;;;;;;16.67;2.10;;;;;;;;;;5046803;28;20036;-67
2024/01/21 07:10:03;;;;;;;18.25;2.53;;;;;;;;;;5051130;28;20041;-67
2024/01/21 07:12:29;;;;;;;21.85;3.50;;;;;;;;;;5051913;28;20033;-67
2024/01/21 07:14:54;;;;;;;23.98;2.53;;;;;;;;;;5051914;28;20040;-68
2024/01/21 07:17:19;;;;;;;23.67;3.38;;;;;;;;;;5051803;28;20043;-67
2024/01/21 07:19:44;;;;;;;26.40;2.47;;;;;;;;;;5051546;28;20079;-66
2024/01/21 07:22:10;;;;;;;20.80;2.45;;;;;;;;;;5050870;28;20095;-67
2024/01/21 07:24:35;;;;;;;24.42;3.05;;;;;;;;;;5051922;28;20040;-67
2024/01/21 07:27:01;;;;;;;23.15;2.72;;;;;;;;;;5052584;28;20465;-67
2024/01/21 07:29:27;;;;;;;26.70;3.03;;;;;;;;;;5052165;28;20051;-68
2024/01/21 07:31:52;;;;;;;23.83;2.63;;;;;;;;;;5051397;28;20128;-67
2024/01/21 07:34:17;;;;;;;17.15;2.38;;;;;;;;;;5050800;28;20068;-66
2024/01/21 07:36:43;;;;;;;35.33;3.13;;;;;;;;;;5052196;28;20640;-67
2024/01/21 07:39:08;;;;;;;23.35;3.35;;;;;;;;;;5050067;28;20550;-66
2024/01/21 07:41:34;;;;;;;23.23;3.45;;;;;;;;;;5051747;28;20067;-68
2024/01/21 07:43:59;;;;;;;27.98;2.72;;;;;;;;;;5050243;28;20039;-67
2024/01/21 07:46:24;;;;;;;27.35;2.78;;;;;;;;;;5051392;28;20036;-66
2024/01/21 07:48:50;;;;;;;26.83;4.45;;;;;;;;;;5051565;28;20036;-67
2024/01/21 07:51:19;;;;;;;26.95;4.57;;;;;;;;;;5051472;28;20033;-68
2024/01/21 07:53:44;;;;;;;27.80;3.35;;;;;;;;;;5051400;28;20115;-67
2024/01/21 07:56:10;;;;;;;27.80;3.20;;;;;;;;;;5051235;28;20624;-67
2024/01/21 07:58:36;;;;;;;27.75;4.10;;;;;;;;;;5050914;28;20086;-66
2024/01/21 08:01:01;;;;;;;15.18;2.45;;;;;;;;;;5050779;28;20604;-66
2024/01/21 08:03:26;;;;;;;25.45;2.85;;;;;;;;;;5051477;28;20033;-68
2024/01/21 08:05:53;;;;;;;26.13;3.53;;;;;;;;;;5051214;28;20037;-66
2024/01/21 08:08:18;;;;;;;37.05;3.92;;;;;;;;;;5051120;28;20119;-67
2024/01/21 08:10:44;;;;;;;19.75;2.65;;;;;;;;;;5051309;28;20528;-67
2024/01/21 08:13:09;;;;;;;29.73;3.83;;;;;;;;;;5051420;28;20057;-67
2024/01/21 08:15:34;;;;;;;25.65;3.25;;;;;;;;;;5051045;28;20494;-67
2024/01/21 08:18:00;;;;;;;24.10;2.88;;;;;;;;;;5051218;28;20036;-67
2024/01/21 08:20:25;;;;;;;23.75;3.47;;;;;;;;;;5051293;28;20033;-68
2024/01/21 08:22:50;;;;;;;24.77;4.57;;;;;;;;;;5050408;28;20041;-67
2024/01/21 08:25:16;;;;;;;25.63;3.53;;;;;;;;;;5050374;28;20122;-67
2024/01/21 08:27:41;;;;;;;31.35;3.30;;;;;;;;;;5049874;28;20079;-66
2024/01/21 08:30:08;;;;;;;26.00;3.28;;;;;;;;;;5053018;28;20545;-67
2024/01/21 08:32:34;;;;;;;26.88;3.63;;;;;;;;;;5050726;28;20039;-67
2024/01/21 08:34:59;;;;;;;23.80;3.70;;;;;;;;;;5082576;28;20112;-67
2024/01/21 08:37:25;;;;;;;13.90;2.85;;;;;;;;;;5050741;28;20051;-67
2024/01/21 08:39:50;;;;;;;22.95;3.38;;;;;;;;;;5050450;28;20358;-67
2024/01/21 08:42:15;;;;;;;26.63;3.60;;;;;;;;;;5050045;28;20162;-67
2024/01/21 08:44:41;;;;;;;19.48;2.60;;;;;;;;;;5050922;28;20033;-67
2024/01/21 08:47:06;;;;;;;28.70;4.28;;;;;;;;;;5050492;28;20045;-67
2024/01/21 08:49:31;;;;;;;25.38;4.03;;;;;;;;;;5050599;28;20036;-68
2024/01/21 08:51:57;;;;;;;23.35;3.42;;;;;;;;;;5050829;28;20041;-67
2024/01/21 08:54:23;;;;;;;23.67;3.92;;;;;;;;;;5050433;28;20021;-66
2024/01/21 08:56:48;;;;;;;23.83;4.18;;;;;;;;;;5049396;28;20064;-67
2024/01/21 08:59:13;;;;;;;25.00;3.70;;;;;;;;;;5050630;28;20056;-66
2024/01/21 09:01:39;;;;;;;19.92;2.80;;;;;;;;;;5050329;28;20029;-67
2024/01/21 09:04:04;;;;;;;25.20;3.50;;;;;;;;;;5050522;28;20028;-67
2024/01/21 09:06:30;;;;;;;25.50;3.55;;;;;;;;;;5050683;28;20067;-68
2024/01/21 09:08:56;;;;;;;32.35;3.55;;;;;;;;;;5050406;28;20029;-68
2024/01/21 09:11:23;;;;;;;22.15;2.67;;;;;;;;;;5050483;28;20033;-67
2024/01/21 09:13:48;;;;;;;28.95;4.05;;;;;;;;;;5049161;28;20454;-66
2024/01/21 09:16:19;;;;;;;23.90;2.83;;;;;;;;;;5049489;28;20044;-67
2024/01/21 09:18:45;;;;;;;23.80;3.78;;;;;;;;;;5048752;28;20032;-68
2024/01/21 09:21:10;;;;;;;20.23;3.28;;;;;;;;;;5049674;28;20060;-67
2024/01/21 09:23:35;;;;;;;30.35;3.97;;;;;;;;;;5049237;28;20177;-66
2024/01/21 09:26:01;;;;;;;27.15;3.45;;;;;;;;;;5050287;28;20039;-67
2024/01/21 09:28:26;;;;;;;30.65;4.38;;;;;;;;;;5048966;28;20044;-67
2024/01/21 09:30:51;;;;;;;20.52;2.75;;;;;;;;;;5049584;28;20449;-67
2024/01/21 09:33:19;;;;;;;27.33;3.38;;;;;;;;;;5044270;28;20036;-67
2024/01/21 09:35:44;;;;;;;21.17;3.67;;;;;;;;;;5049566;28;20069;-67
2024/01/21 09:38:13;;;;;;;24.17;3.78;;;;;;;;;;5049255;28;20067;-67
2024/01/21 09:40:39;;;;;;;22.95;3.47;;;;;;;;;;5048661;28;20029;-67
2024/01/21 09:43:04;;;;;;;21.05;3.97;;;;;;;;;;5050075;28;20147;-67
2024/01/21 09:45:31;;;;;;;27.45;4.90;;;;;;;;;;5050030;28;20033;-67
2024/01/21 09:47:57;;;;;;;27.88;3.75;;;;;;;;;;5046526;28;20107;-67
2024/01/21 09:50:24;;;;;;;19.67;3.53;;;;;;;;;;5050157;28;20087;-67
2024/01/21 09:52:49;;;;;;;20.02;3.40;;;;;;;;;;5049687;28;20499;-68
2024/01/21 09:55:14;;;;;;;15.75;3.13;;;;;;;;;;5048442;28;20032;-67
2024/01/21 09:57:40;;;;;;;30.48;3.72;;;;;;;;;;5049968;28;20519;-68
2024/01/21 10:00:07;;;;;;;25.30;2.95;;;;;;;;;;5049709;28;20102;-67
2024/01/21 10:02:33;;;;;;;24.85;3.38;;;;;;;;;;5048249;28;20063;-67
2024/01/21 10:04:58;;;;;;;22.73;3.65;;;;;;;;;;5049658;28;20438;-67
2024/01/21 10:07:24;;;;;;;19.58;3.30;;;;;;;;;;5050607;28;20119;-67
2024/01/21 10:09:57;;;;;;;31.02;4.20;;;;;;;;;;5053558;28;20107;-67
2024/01/21 10:12:24;;;;;;;20.25;3.30;;;;;;;;;;5053853;28;20041;-67
2024/01/21 10:14:49;;;;;;;24.52;3.55;;;;;;;;;;5053858;28;20041;-67
2024/01/21 10:17:15;;;;;;;24.10;4.28;;;;;;;;;;5052541;28;20512;-67
2024/01/21 10:19:40;;;;;;;24.55;4.30;;;;;;;;;;5053538;28;20108;-67
2024/01/21 10:22:06;;;;;;;21.70;3.03;;;;;;;;;;5053588;28;20041;-67
2024/01/21 10:24:31;;;;;;;21.42;3.05;;;;;;;;;;5053227;28;20037;-66
2024/01/21 10:26:57;;;;;;;26.13;3.50;;;;;;;;;;5053552;28;20642;-67
2024/01/21 10:29:22;;;;;;;27.52;3.00;;;;;;;;;;5060685;28;20087;-66
2024/01/21 10:31:47;;;;;;;26.92;3.42;;;;;;;;;;5053173;28;20128;-67
2024/01/21 10:34:13;;;;;;;21.20;3.53;;;;;;;;;;5051876;28;20051;-68
2024/01/21 10:36:39;;;;;;;23.98;2.97;;;;;;;;;;5053246;28;20037;-67
2024/01/21 10:39:06;;;;;;;15.45;3.63;;;;;;;;;;5085542;28;20123;-67
2024/01/21 10:41:32;;;;;;;16.75;3.03;;;;;;;;;;5051770;28;20033;-67
2024/01/21 10:43:59;;;;;;;24.83;3.25;;;;;;;;;;5051863;28;20036;-67
2024/01/21 10:46:28;;;;;;;19.52;2.83;;;;;;;;;;5052400;28;20045;-66
2024/01/21 10:48:57;;;;;;;29.90;3.10;;;;;;;;;;5051209;28;20032;-67
2024/01/21 10:51:23;;;;;;;25.77;3.40;;;;;;;;;;5051679;28;20033;-66
2024/01/21 10:53:53;;;;;;;15.88;2.53;;;;;;;;;;5053082;28;20044;-67
2024/01/21 10:56:23;;;;;;;17.08;2.80;;;;;;;;;;5051372;28;20060;-67
2024/01/21 10:58:49;;;;;;;18.77;2.22;;;;;;;;;;5084627;28;20135;-67
2024/01/21 11:01:16;;;;;;;18.67;3.10;;;;;;;;;;5084700;28;20041;-67
2024/01/21 11:03:43;;;;;;;27.45;2.65;;;;;;;;;;5052421;28;20493;-67
2024/01/21 11:06:10;;;;;;;23.52;3.03;;;;;;;;;;5051473;28;20025;-66
2024/01/21 11:08:36;;;;;;;22.33;3.40;;;;;;;;;;5052941;28;20040;-68
2024/01/21 11:11:13;;;;;;;20.83;2.72;;;;;;;;;;5084012;28;20044;-67
2024/01/21 11:13:45;;;;;;;19.77;3.35;;;;;;;;;;5044440;28;20037;-68
2024/01/21 11:16:26;;;;;;;28.27;3.72;;;;;;;;;;5052219;28;20503;-67
2024/01/21 11:19:08;;;;;;;9.60;2.38;;;;;;;;;;5036512;28;20515;-67
2024/01/21 11:21:40;;;;;;;16.15;2.90;;;;;;;;;;5051086;28;20037;-67
2024/01/21 11:24:12;;;;;;;14.43;3.00;;;;;;;;;;5052247;28;20037;-68
2024/01/21 11:26:47;;;;;;;20.30;3.22;;;;;;;;;;5052119;28;20473;-68
2024/01/21 11:29:39;;;;;;;18.05;3.00;;;;;;;;;;5083471;28;20036;-67
2024/01/21 11:32:06;;;;;;;15.25;3.42;;;;;;;;;;5052705;28;20056;-67
2024/01/21 11:34:38;;;;;;;15.18;2.30;;;;;;;;;;5052164;28;20124;-68
2024/01/21 11:37:08;;;;;;;23.42;3.28;;;;;;;;;;5052116;28;20025;-66
2024/01/21 11:39:33;;;;;;;18.60;2.45;;;;;;;;;;5051950;28;20049;-68
2024/01/21 11:42:00;;;;;;;19.40;2.70;;;;;;;;;;5083986;28;20041;-67
2024/01/21 11:44:27;;;;;;;19.80;2.80;;;;;;;;;;5050599;28;20555;-67
2024/01/21 11:46:54;;;;;;;33.85;4.38;;;;;;;;;;5050741;28;20118;-67
2024/01/21 11:49:19;;;;;;;22.38;2.95;;;;;;;;;;5050655;28;20048;-67
2024/01/21 11:51:45;;;;;;;21.63;2.75;;;;;;;;;;5051812;28;20025;-66
2024/01/21 11:54:11;;;;;;;18.45;3.72;;;;;;;;;;5050472;28;20497;-67
2024/01/21 11:56:37;;;;;;;21.45;4.00;;;;;;;;;;5083531;28;20124;-68
2024/01/21 11:59:06;;;;;;;17.02;2.75;;;;;;;;;;5051725;28;20121;-68
2024/01/21 12:01:33;;;;;;;13.38;3.08;;;;;;;;;;5048631;28;20115;-70
2024/01/21 12:04:03;;;;;;;21.13;3.33;;;;;;;;;;5051621;28;20040;-66
2024/01/21 12:06:33;;;;;;;22.80;3.63;;;;;;;;;;5050434;28;20554;-66
2024/01/21 12:09:00;;;;;;;18.85;3.33;;;;;;;;;;5083929;28;20467;-66
2024/01/21 12:11:26;;;;;;;24.80;3.58;;;;;;;;;;5083435;28;20037;-67
2024/01/21 12:13:51;;;;;;;24.38;4.00;;;;;;;;;;5051574;28;20511;-67
2024/01/21 12:16:17;;;;;;;24.83;4.47;;;;;;;;;;5050018;28;20087;-67
2024/01/21 12:18:43;;;;;;;25.05;3.80;;;;;;;;;;5051088;28;20033;-67
2024/01/21 12:21:14;;;;;;;30.65;4.50;;;;;;;;;;5051417;28;20078;-68
2024/01/21 12:23:41;;;;;;;24.98;5.18;;;;;;;;;;5050570;28;20503;-68
2024/01/21 12:26:06;;;;;;;31.10;4.13;;;;;;;;;;5049533;28;20081;-68
2024/01/21 12:28:31;;;;;;;24.10;3.70;;;;;;;;;;5049530;28;20069;-66
2024/01/21 12:30:57;;;;;;;20.17;3.67;;;;;;;;;;5081916;28;20075;-68
2024/01/21 12:33:22;;;;;;;17.23;3.05;;;;;;;;;;5049040;28;20044;-67
2024/01/21 12:35:48;;;;;;;16.02;3.60;;;;;;;;;;5081983;28;20674;-67
2024/01/21 12:38:14;;;;;;;18.23;2.83;;;;;;;;;;5075681;28;20128;-68
2024/01/21 12:40:39;;;;;;;23.27;3.78;;;;;;;;;;5048068;28;20032;-67
2024/01/21 12:43:04;;;;;;;24.20;4.28;;;;;;;;;;5049640;28;20489;-68
2024/01/21 12:45:30;;;;;;;16.73;3.42;;;;;;;;;;5049960;28;20346;-69
2024/01/21 12:47:55;;;;;;;23.23;3.75;;;;;;;;;;5049616;28;20029;-68
2024/01/21 12:50:22;;;;;;;22.35;4.30;;;;;;;;;;5049865;28;20472;-68
2024/01/21 12:52:47;;;;;;;24.08;4.10;;;;;;;;;;5050901;28;20063;-67
2024/01/21 12:55:12;;;;;;;24.60;4.93;;;;;;;;;;5049395;28;20037;-67
2024/01/21 12:57:38;;;;;;;21.48;2.63;;;;;;;;;;5048942;28;20044;-68
2024/01/21 13:00:04;;;;;;;16.45;2.85;;;;;;;;;;5050152;28;20068;-67
2024/01/21 13:02:29;;;;;;;40.20;5.38;;;;;;;;;;5049964;28;20040;-67
2024/01/21 13:04:55;;;;;;;11.20;2.58;;;;;;;;;;5049838;28;20029;-68
2024/01/21 13:07:21;;;;;;;24.38;3.80;;;;;;;;;;5050363;28;20045;-67
2024/01/21 13:09:46;;;;;;;20.13;2.58;;;;;;;;;;5049142;28;20041;-68
2024/01/21 13:12:12;;;;;;;23.10;3.50;;;;;;;;;;5048898;28;20040;-67
2024/01/21 13:14:38;;;;;;;25.88;3.90;;;;;;;;;;5048949;28;20033;-67
2024/01/21 13:17:03;;;;;;;20.05;3.15;;;;;;;;;;5048726;28;20504;-68
2024/01/21 13:19:28;;;;;;;28.00;3.60;;;;;;;;;;5047766;28;20477;-67
2024/01/21 13:21:54;;;;;;;30.52;4.53;;;;;;;;;;5048129;28;20048;-68
2024/01/21 13:24:20;;;;;;;22.20;3.83;;;;;;;;;;5049895;28;20380;-67
2024/01/21 13:26:52;;;;;;;23.35;3.53;;;;;;;;;;5052575;28;20036;-67
2024/01/21 13:32:05;;;;;;;14.52;2.50;;;;;;;;;;5046667;28;20044;-68
2024/01/21 13:34:31;;;;;;;22.90;4.18;;;;;;;;;;5068602;28;20041;-68
2024/01/21 13:36:57;;;;;;;24.77;3.28;;;;;;;;;;5048590;28;20031;-67
2024/01/21 13:39:24;;;;;;;20.48;3.53;;;;;;;;;;5048104;28;20041;-67
2024/01/21 13:41:50;;;;;;;17.00;3.83;;;;;;;;;;5049207;28;20469;-67
2024/01/21 13:44:16;;;;;;;26.63;4.80;;;;;;;;;;5052417;28;20120;-68
2024/01/21 13:46:41;;;;;;;18.63;2.78;;;;;;;;;;5054103;28;20111;-67
2024/01/21 13:49:07;;;;;;;27.25;4.57;;;;;;;;;;5053820;28;20033;-67
2024/01/21 13:51:32;;;;;;;24.70;4.40;;;;;;;;;;5054047;28;20052;-68
2024/01/21 13:53:57;;;;;;;27.83;4.40;;;;;;;;;;5052374;28;20120;-68
2024/01/21 13:56:23;;;;;;;27.75;3.65;;;;;;;;;;5053264;28;20485;-67
2024/01/21 13:58:48;;;;;;;23.92;3.72;;;;;;;;;;5053621;28;20610;-66
2024/01/21 14:01:13;;;;;;;32.45;3.33;;;;;;;;;;5063585;28;20045;-67
2024/01/21 14:03:39;;;;;;;23.90;3.45;;;;;;;;;;5061538;28;20484;-66
2024/01/21 14:06:04;;;;;;;23.40;3.35;;;;;;;;;;5067108;28;20056;-68
2024/01/21 14:08:30;;;;;;;22.73;3.78;;;;;;;;;;5053791;28;20037;-67
2024/01/21 14:10:55;;;;;;;34.55;3.78;;;;;;;;;;5053571;28;20120;-68
2024/01/21 14:13:21;;;;;;;26.95;4.25;;;;;;;;;;5053391;28;20039;-66
2024/01/21 14:15:48;;;;;;;13.43;2.90;;;;;;;;;;5053431;28;20037;-67
2024/01/21 14:18:13;;;;;;;26.50;3.90;;;;;;;;;;5057227;28;20036;-67
2024/01/21 14:20:39;;;;;;;21.95;2.90;;;;;;;;;;5055499;28;20480;-67
2024/01/21 14:23:04;;;;;;;27.77;4.35;;;;;;;;;;5053524;28;20029;-66
2024/01/21 14:25:40;;;;;;;31.65;3.47;;;;;;;;;;5085759;28;20397;-66
2024/01/21 14:28:05;;;;;;;20.40;3.95;;;;;;;;;;5053194;28;20079;-67